CheckWX is a tool to help pilots better visualize weather data.  It is not intended as a substitute for an official pre-flight weather briefing.

12:23:38 UTC

KDVL METAR
Devils Lake Regional Airport
Devils Lake, North Dakota, USA
Current

28 mins ago

KDVL 221156Z AUTO 26007KT 10SM CLR M25/M27 A3024 RMK AO2 SLP299 60000 T12501272 11200 21256 58004 FZRANO
Observed
Feb-22 @ 11:56 UTC
Wind
  • 260° at 7 KTS
Visibility
10 SM
Flight Rules
VFR
Cloud Levels
  • Clear skies
Temperature
-25°C / -13°F
Dewpoint
-27°C / -17°F
Humidity
83%
Altimeter
30.24" Hg
Pressure
1029.9 hPa
Previous

1 hour ago

KDVL 221056Z AUTO 23005KT 10SM CLR M23/M25 A3024 RMK AO2 SLP298 T12281250 FZRANO
Observed
Feb-22 @ 10:56 UTC
Wind
  • 230° at 5 KTS
Visibility
10 SM
Flight Rules
VFR
Cloud Levels
  • Clear skies
Temperature
-23°C / -9°F
Dewpoint
-25°C / -13°F
Humidity
84%
Altimeter
30.24" Hg
Pressure
1029.8 hPa
Previous

2 hours ago

KDVL 220956Z AUTO 00000KT 9SM CLR M26/M28 A3025 RMK AO2 SNE07 SLP303 P0000 T12561278 FZRANO
Observed
Feb-22 @ 09:56 UTC
Visibility
9 SM
Flight Rules
VFR
Cloud Levels
  • Clear skies
Temperature
-26°C / -15°F
Dewpoint
-28°C / -18°F
Humidity
83%
Altimeter
30.25" Hg
Pressure
1030.3 hPa
Current Rain
0.01"